Time;durP1;ratioP1;P1;durP2;ratioP2;P2;SDS_P1;SDS_P2;PMS_P1;PMS_P2;Temp;Humidity;BMP_temperature;BMP_pressure;BME280_temperature;BME280_humidity;BME280_pressure;Samples;Min_cycle;Max_cycle;Signal;HPM_P1;HPM_P2
2022/11/04 00:01:36;;;;;;;12.50;10.15;;;11.90;99.90;;;;;;5043995;28;20130;-74
2022/11/04 00:04:01;;;;;;;12.23;9.98;;;11.90;99.90;;;;;;5046110;28;20134;-74
2022/11/04 00:06:27;;;;;;;14.02;10.75;;;11.90;99.90;;;;;;5048730;28;20045;-74
2022/11/04 00:08:54;;;;;;;15.23;11.20;;;11.90;99.90;;;;;;5050582;28;20078;-74
2022/11/04 00:14:08;;;;;;;14.13;9.95;;;11.90;99.90;;;;;;5047313;28;20110;-73
2022/11/04 00:19:18;;;;;;;11.77;9.00;;;11.90;99.90;;;;;;5048081;28;20049;-73
2022/11/04 00:29:55;;;;;;;9.73;7.75;;;11.80;99.90;;;;;;5039739;28;20049;-73
2022/11/04 00:35:07;;;;;;;13.85;7.63;;;11.80;99.90;;;;;;5039618;28;20779;-73
2022/11/04 00:37:36;;;;;;;8.52;7.22;;;11.80;99.90;;;;;;5052909;28;20590;-74
2022/11/04 00:40:02;;;;;;;10.63;7.97;;;11.80;99.90;;;;;;5047034;28;20052;-73
2022/11/04 00:42:27;;;;;;;9.85;7.65;;;11.80;99.90;;;;;;5053060;28;20053;-74
2022/11/04 00:44:53;;;;;;;8.85;7.25;;;11.80;99.90;;;;;;5056471;28;20559;-73
2022/11/04 00:47:19;;;;;;;9.38;6.18;;;11.80;99.90;;;;;;5048411;28;20056;-74
2022/11/04 00:49:44;;;;;;;7.60;4.97;;;11.70;99.90;;;;;;5051814;28;20159;-74
2022/11/04 00:52:10;;;;;;;6.35;5.55;;;11.70;99.90;;;;;;5051088;28;20374;-74
2022/11/04 00:54:35;;;;;;;6.05;4.75;;;11.70;99.90;;;;;;5053602;28;20032;-74
2022/11/04 00:57:01;;;;;;;3.92;3.53;;;11.70;99.90;;;;;;5053626;28;20133;-75
2022/11/04 00:59:27;;;;;;;3.97;3.10;;;11.60;99.90;;;;;;5056826;28;20048;-74
2022/11/04 01:01:52;;;;;;;3.50;3.03;;;11.60;99.90;;;;;;5048601;28;20053;-75
2022/11/04 01:04:18;;;;;;;1.98;1.77;;;11.60;99.90;;;;;;5041902;28;20099;-75
2022/11/04 01:06:44;;;;;;;2.88;2.20;;;11.60;99.90;;;;;;5050481;28;20877;-76
2022/11/04 01:09:11;;;;;;;1.65;1.55;;;11.40;99.90;;;;;;5051633;28;20044;-76
2022/11/04 01:11:37;;;;;;;1.70;1.45;;;11.50;99.90;;;;;;5048818;28;20124;-75
2022/11/04 01:14:03;;;;;;;3.67;1.40;;;11.40;99.90;;;;;;5044232;28;20049;-75
2022/11/04 01:16:29;;;;;;;2.95;1.75;;;11.40;99.90;;;;;;5051285;28;20045;-75
2022/11/04 01:18:55;;;;;;;1.60;1.50;;;11.50;99.90;;;;;;5043962;28;20051;-75
2022/11/04 01:21:21;;;;;;;2.05;1.20;;;11.40;99.90;;;;;;5052235;28;20053;-74
2022/11/04 01:23:47;;;;;;;1.10;1.00;;;11.40;99.90;;;;;;5051970;28;20048;-75
2022/11/04 01:26:16;;;;;;;1.17;1.00;;;11.40;99.90;;;;;;5053135;28;20745;-75
2022/11/04 01:28:41;;;;;;;0.75;0.75;;;11.40;99.90;;;;;;5057152;28;20153;-75
2022/11/04 01:31:13;;;;;;;0.90;0.70;;;11.30;99.90;;;;;;5052725;28;20048;-75
2022/11/04 01:33:38;;;;;;;2.10;1.20;;;11.30;99.90;;;;;;5047258;28;21061;-75
2022/11/04 01:36:06;;;;;;;4.70;1.30;;;11.30;99.90;;;;;;5052389;28;20056;-75
2022/11/04 01:38:32;;;;;;;1.60;1.05;;;11.30;99.90;;;;;;5054102;28;20044;-75
2022/11/04 01:40:57;;;;;;;1.27;1.20;;;11.30;99.90;;;;;;5049264;28;20105;-75
2022/11/04 01:43:41;;;;;;;1.33;1.10;;;11.20;99.90;;;;;;5042397;28;20133;-75
2022/11/04 01:46:09;;;;;;;1.45;0.93;;;11.30;99.90;;;;;;5048107;28;20906;-74
2022/11/04 01:48:36;;;;;;;1.05;0.82;;;11.30;99.90;;;;;;5054686;28;20044;-76
2022/11/04 01:51:02;;;;;;;2.35;1.05;;;11.20;99.90;;;;;;5057378;28;20443;-75
2022/11/04 01:53:32;;;;;;;2.20;1.40;;;11.20;99.90;;;;;;5054128;28;20052;-75
2022/11/04 01:56:01;;;;;;;1.67;0.93;;;11.20;99.90;;;;;;5054567;28;20067;-76
2022/11/04 01:58:32;;;;;;;1.67;0.80;;;11.20;99.90;;;;;;5057582;28;20124;-75
2022/11/04 02:00:57;;;;;;;1.30;0.70;;;11.20;99.90;;;;;;5054662;28;20105;-75
2022/11/04 02:03:28;;;;;;;1.17;0.60;;;11.10;99.90;;;;;;5052631;28;20318;-75
2022/11/04 02:05:56;;;;;;;0.65;0.65;;;11.10;99.90;;;;;;5042935;28;20130;-75
2022/11/04 02:08:22;;;;;;;1.58;0.47;;;11.10;99.90;;;;;;5046671;28;20559;-76
2022/11/04 02:10:55;;;;;;;1.75;0.75;;;11.10;99.90;;;;;;5055786;28;20048;-75
2022/11/04 02:13:20;;;;;;;1.38;1.00;;;11.20;99.90;;;;;;5051844;28;20746;-75
2022/11/04 02:16:13;;;;;;;2.92;0.55;;;11.20;99.90;;;;;;5049566;28;20102;-75
2022/11/04 02:19:06;;;;;;;2.05;0.57;;;11.10;99.90;;;;;;5051805;28;20579;-75
2022/11/04 02:21:51;;;;;;;3.03;0.80;;;11.20;99.90;;;;;;5044769;28;20089;-75
2022/11/04 02:24:38;;;;;;;3.10;1.00;;;11.10;99.90;;;;;;5051553;28;20289;-75
2022/11/04 02:27:24;;;;;;;1.65;0.95;;;11.10;99.90;;;;;;5046778;28;20427;-75
2022/11/04 02:30:07;;;;;;;1.85;0.68;;;11.10;99.90;;;;;;5045601;28;20603;-75
2022/11/04 02:32:45;;;;;;;2.17;0.70;;;11.10;99.90;;;;;;5052387;28;20075;-75
2022/11/04 02:35:14;;;;;;;2.00;0.60;;;11.10;99.90;;;;;;5051332;28;20044;-75
2022/11/04 02:37:42;;;;;;;2.15;0.68;;;11.10;99.90;;;;;;5052384;28;20056;-75
2022/11/04 02:40:37;;;;;;;2.75;0.80;;;11.10;99.90;;;;;;5054047;28;20163;-75
2022/11/04 02:43:20;;;;;;;1.98;0.80;;;11.20;99.90;;;;;;5050660;28;20051;-75
2022/11/04 02:45:49;;;;;;;2.22;1.05;;;11.10;99.90;;;;;;5048548;28;20041;-74
2022/11/04 02:48:43;;;;;;;4.68;1.15;;;11.20;99.90;;;;;;5048360;28;20055;-75
2022/11/04 02:51:16;;;;;;;3.63;0.77;;;11.10;99.90;;;;;;5053036;28;20127;-75
2022/11/04 02:53:47;;;;;;;;;;;11.10;99.90;;;;;;5047220;28;20110;-75
2022/11/04 02:56:15;;;;;;;1.92;1.60;;;11.10;99.90;;;;;;5049245;28;19932;-75
2022/11/04 02:59:03;;;;;;;1.17;0.90;;;11.10;99.90;;;;;;5043216;28;20044;-75
2022/11/04 03:01:33;;;;;;;2.88;0.88;;;11.10;99.90;;;;;;5048471;28;20091;-75
2022/11/04 03:04:09;;;;;;;4.57;0.75;;;11.10;99.90;;;;;;5042515;28;20086;-75
2022/11/04 03:06:36;;;;;;;2.38;0.77;;;11.10;99.90;;;;;;5040977;28;20060;-75
2022/11/04 03:09:03;;;;;;;2.05;0.80;;;11.10;99.90;;;;;;5053089;28;20056;-75
2022/11/04 03:11:30;;;;;;;2.10;1.02;;;11.10;99.90;;;;;;5052944;28;20048;-75
2022/11/04 03:14:06;;;;;;;3.38;0.82;;;11.10;99.90;;;;;;5042220;28;20068;-75
2022/11/04 03:16:45;;;;;;;4.28;0.90;;;11.10;99.90;;;;;;5054405;28;20476;-75
2022/11/04 03:19:14;;;;;;;1.92;0.88;;;11.10;99.90;;;;;;5055626;28;20048;-75
2022/11/04 03:21:48;;;;;;;0.63;0.52;;;11.10;99.90;;;;;;5044804;28;20681;-75
2022/11/04 03:24:14;;;;;;;4.43;0.75;;;11.10;99.90;;;;;;5050749;28;20055;-75
2022/11/04 03:27:03;;;;;;;1.90;0.75;;;11.10;99.90;;;;;;5045529;28;20040;-75
2022/11/04 03:29:49;;;;;;;1.30;0.90;;;11.20;99.90;;;;;;5047830;28;20048;-75
2022/11/04 03:32:41;;;;;;;2.08;0.80;;;11.10;99.90;;;;;;5051468;28;20136;-74
2022/11/04 03:35:08;;;;;;;2.92;0.65;;;11.20;99.90;;;;;;5051221;28;20041;-75
2022/11/04 03:37:34;;;;;;;0.57;0.50;;;11.20;99.90;;;;;;5050398;28;20044;-75
2022/11/04 03:40:01;;;;;;;2.70;0.65;;;11.20;99.90;;;;;;5042611;28;20048;-75
2022/11/04 03:42:27;;;;;;;0.77;0.50;;;11.30;99.90;;;;;;5046379;28;21068;-75
2022/11/04 03:44:55;;;;;;;3.08;0.73;;;11.20;99.90;;;;;;5043138;28;20098;-75
2022/11/04 03:47:26;;;;;;;1.15;0.57;;;11.20;99.90;;;;;;5045032;28;20060;-75
2022/11/04 03:50:01;;;;;;;3.08;0.60;;;11.10;99.90;;;;;;5047272;28;20051;-75
2022/11/04 03:52:27;;;;;;;2.17;0.95;;;11.20;99.90;;;;;;5042430;28;20036;-75
2022/11/04 03:54:53;;;;;;;3.35;0.60;;;11.20;99.90;;;;;;5049364;28;20072;-75
2022/11/04 03:57:38;;;;;;;4.25;0.60;;;11.20;99.90;;;;;;5044942;28;20392;-75
2022/11/04 04:00:18;;;;;;;2.05;0.70;;;11.10;99.90;;;;;;5045645;28;20044;-75
2022/11/04 04:02:59;;;;;;;0.50;0.50;;;11.20;99.90;;;;;;5044594;28;20132;-75
2022/11/04 04:05:28;;;;;;;1.60;0.70;;;11.20;99.90;;;;;;5049590;28;20044;-75
2022/11/04 04:08:20;;;;;;;2.63;0.90;;;11.20;99.90;;;;;;5053041;28;20048;-75
2022/11/04 04:11:00;;;;;;;1.13;0.63;;;11.10;99.90;;;;;;5026462;28;20183;-75
2022/11/04 04:13:37;;;;;;;1.10;1.00;;;11.10;99.90;;;;;;5040208;28;20062;-75
2022/11/04 04:16:14;;;;;;;2.67;0.70;;;11.10;99.90;;;;;;5043430;28;20129;-75
2022/11/04 04:18:48;;;;;;;1.67;0.57;;;11.10;99.90;;;;;;5046741;28;20478;-75
2022/11/04 04:21:19;;;;;;;2.00;0.80;;;11.10;99.90;;;;;;5049470;28;20318;-75
2022/11/04 04:29:24;;;;;;;2.55;0.88;;;11.10;99.90;;;;;;5051065;28;20098;-75
2022/11/04 04:31:56;;;;;;;1.77;0.80;;;11.10;99.90;;;;;;5039082;28;20049;-73
2022/11/04 04:34:26;;;;;;;3.60;0.73;;;11.00;99.90;;;;;;5042510;28;20045;-73
2022/11/04 04:37:05;;;;;;;3.22;0.90;;;11.00;99.90;;;;;;5047361;28;20048;-74
2022/11/04 04:45:07;;;;;;;2.60;0.93;;;11.00;99.90;;;;;;5048576;28;20516;-75
2022/11/04 04:47:44;;;;;;;1.77;0.80;;;11.00;99.90;;;;;;5044778;28;20051;-74
2022/11/04 04:50:13;;;;;;;0.90;0.77;;;11.00;99.90;;;;;;5046932;28;20510;-75
2022/11/04 04:52:44;;;;;;;1.45;0.68;;;11.00;99.90;;;;;;5039488;28;20094;-75
2022/11/04 04:55:10;;;;;;;2.53;1.05;;;11.00;99.90;;;;;;5048398;28;20080;-75
2022/11/04 04:57:36;;;;;;;1.75;0.70;;;10.90;99.90;;;;;;5044518;28;20059;-74
2022/11/04 05:00:03;;;;;;;0.73;0.55;;;11.00;99.90;;;;;;5052141;28;20053;-75
2022/11/04 05:02:29;;;;;;;1.63;0.70;;;10.90;99.90;;;;;;5052264;28;20832;-74
2022/11/04 05:04:55;;;;;;;0.75;0.60;;;11.00;99.90;;;;;;5049650;28;20048;-76
2022/11/04 05:07:21;;;;;;;6.03;0.90;;;10.90;99.90;;;;;;5049909;28;20618;-75
2022/11/04 05:09:47;;;;;;;1.13;0.90;;;10.90;99.90;;;;;;5051346;28;20151;-74
2022/11/04 05:12:12;;;;;;;1.15;0.75;;;10.90;99.90;;;;;;5045261;28;20087;-74
2022/11/04 05:14:38;;;;;;;2.08;0.68;;;10.90;99.90;;;;;;5037086;28;20033;-74
2022/11/04 05:17:04;;;;;;;1.30;0.55;;;10.80;99.90;;;;;;5049673;28;20051;-74
2022/11/04 05:19:29;;;;;;;0.75;0.60;;;10.80;99.90;;;;;;5046128;28;20045;-74
2022/11/04 05:21:55;;;;;;;0.93;0.40;;;10.80;99.90;;;;;;5048921;28;20481;-74
2022/11/04 05:24:21;;;;;;;1.02;0.50;;;10.80;99.90;;;;;;5044259;28;20076;-74
2022/11/04 05:26:46;;;;;;;1.13;0.63;;;10.70;99.90;;;;;;5043186;28;20048;-75
2022/11/04 05:29:12;;;;;;;0.55;0.55;;;10.70;99.90;;;;;;5042079;28;20822;-75
2022/11/04 05:31:38;;;;;;;0.82;0.47;;;10.60;99.90;;;;;;5039921;28;21218;-75
2022/11/04 05:34:04;;;;;;;3.55;0.63;;;10.60;99.90;;;;;;5046059;28;20044;-75
2022/11/04 05:36:32;;;;;;;1.13;0.60;;;10.60;99.90;;;;;;5047263;28;20055;-75
2022/11/04 05:38:57;;;;;;;0.77;0.55;;;10.50;99.90;;;;;;5044672;28;20055;-75
2022/11/04 05:41:26;;;;;;;0.80;0.70;;;10.40;99.90;;;;;;5057260;28;20062;-75
2022/11/04 05:44:03;;;;;;;1.58;0.88;;;10.40;99.90;;;;;;5044308;28;20057;-75
2022/11/04 05:46:29;;;;;;;0.88;0.57;;;10.30;99.90;;;;;;5051198;28;20052;-75
2022/11/04 05:48:55;;;;;;;1.95;0.55;;;10.30;99.90;;;;;;5050498;28;20045;-75
2022/11/04 05:51:27;;;;;;;3.70;0.90;;;10.30;99.90;;;;;;5052093;28;20052;-75
2022/11/04 05:53:53;;;;;;;0.90;0.60;;;10.30;99.90;;;;;;5053743;28;20117;-74
2022/11/04 05:56:18;;;;;;;3.33;0.70;;;10.30;99.90;;;;;;5042706;28;20761;-75
2022/11/04 05:58:44;;;;;;;1.67;0.50;;;10.30;99.90;;;;;;5052840;28;20547;-76
2022/11/04 06:01:26;;;;;;;0.85;0.60;;;10.20;99.90;;;;;;5041862;28;20135;-75
2022/11/04 06:03:53;;;;;;;1.23;0.70;;;10.20;99.90;;;;;;5050756;28;20541;-75
2022/11/04 06:06:19;;;;;;;4.13;0.88;;;10.10;99.90;;;;;;5047669;28;20459;-75
2022/11/04 06:08:45;;;;;;;1.65;0.85;;;10.10;99.90;;;;;;5047119;28;20051;-75
2022/11/04 06:11:11;;;;;;;0.70;0.70;;;10.10;99.90;;;;;;5048390;28;20124;-75
2022/11/04 06:13:36;;;;;;;1.92;0.93;;;10.00;99.90;;;;;;5048664;28;20064;-75
2022/11/04 06:16:02;;;;;;;1.10;1.00;;;10.00;99.90;;;;;;5044781;28;20216;-75
2022/11/04 06:18:28;;;;;;;1.65;0.80;;;10.10;99.90;;;;;;5042281;28;20076;-75
2022/11/04 06:21:13;;;;;;;0.68;0.40;;;10.00;99.90;;;;;;5046108;28;20060;-75
2022/11/04 06:23:43;;;;;;;1.10;0.63;;;10.00;99.90;;;;;;5041104;28;20060;-75
2022/11/04 06:26:09;;;;;;;1.52;0.70;;;10.00;99.90;;;;;;5042709;28;20123;-75
2022/11/04 06:28:35;;;;;;;1.77;0.70;;;9.90;99.90;;;;;;5049352;28;20044;-76
2022/11/04 06:31:03;;;;;;;1.20;0.57;;;10.00;99.90;;;;;;5041507;28;20056;-76
2022/11/04 06:33:29;;;;;;;1.52;0.90;;;9.90;99.90;;;;;;5039917;28;20480;-75
2022/11/04 06:36:02;;;;;;;1.23;1.13;;;9.90;99.90;;;;;;5043430;28;20052;-75
2022/11/04 06:38:31;;;;;;;2.40;0.82;;;9.90;99.90;;;;;;5044476;28;20591;-75
2022/11/04 06:40:57;;;;;;;1.88;0.65;;;9.90;99.90;;;;;;5046927;28;20128;-76
2022/11/04 06:43:23;;;;;;;0.52;0.52;;;9.90;99.90;;;;;;5046419;28;20044;-75
2022/11/04 06:45:56;;;;;;;1.55;1.17;;;9.90;99.90;;;;;;5048362;28;20074;-75
2022/11/04 06:48:21;;;;;;;1.63;0.50;;;9.80;99.90;;;;;;5040783;28;20880;-75
2022/11/04 06:50:47;;;;;;;5.03;1.25;;;9.80;99.90;;;;;;5054147;28;20148;-75
2022/11/04 06:53:13;;;;;;;1.23;0.85;;;9.80;99.90;;;;;;5045753;28;20057;-75
2022/11/04 06:55:39;;;;;;;1.13;0.73;;;9.80;99.90;;;;;;5052916;28;20590;-75
2022/11/04 06:58:05;;;;;;;0.77;0.68;;;9.70;99.90;;;;;;5052274;28;20076;-75
2022/11/04 07:00:31;;;;;;;1.63;0.90;;;9.70;99.90;;;;;;5040205;28;21084;-75
2022/11/04 07:02:57;;;;;;;0.70;0.68;;;9.70;99.90;;;;;;5051889;28;20059;-75
2022/11/04 07:05:23;;;;;;;2.42;0.80;;;9.70;99.90;;;;;;5047812;28;20602;-75
2022/11/04 07:07:48;;;;;;;2.40;0.77;;;9.70;99.90;;;;;;5045126;28;20040;-75
2022/11/04 07:10:14;;;;;;;1.55;0.60;;;9.70;99.90;;;;;;5053842;28;20044;-76
2022/11/04 07:12:40;;;;;;;1.50;0.70;;;9.70;99.90;;;;;;5051160;28;20055;-75
2022/11/04 07:15:06;;;;;;;2.00;0.77;;;9.70;99.90;;;;;;5037457;28;20520;-75
2022/11/04 07:17:32;;;;;;;2.63;1.00;;;9.80;99.90;;;;;;5041600;28;20156;-75
2022/11/04 07:19:57;;;;;;;1.67;0.80;;;9.70;99.90;;;;;;5050156;28;20044;-75
2022/11/04 07:22:23;;;;;;;2.63;0.90;;;9.70;99.90;;;;;;5053098;28;20669;-75
2022/11/04 07:24:49;;;;;;;0.60;0.60;;;9.70;99.90;;;;;;5043636;28;20122;-75
2022/11/04 07:27:14;;;;;;;1.25;0.63;;;9.70;99.90;;;;;;5041900;28;20049;-75
2022/11/04 07:29:40;;;;;;;1.38;0.57;;;9.70;99.90;;;;;;5059136;28;20044;-75
2022/11/04 07:32:06;;;;;;;1.70;1.20;;;9.70;99.90;;;;;;5045400;28;20538;-75
2022/11/04 07:34:31;;;;;;;1.90;0.65;;;9.70;99.90;;;;;;5040485;28;20048;-75
2022/11/04 07:36:57;;;;;;;0.88;0.73;;;9.70;99.90;;;;;;5038945;28;20098;-75
2022/11/04 07:39:23;;;;;;;1.75;0.90;;;9.70;99.90;;;;;;5040415;28;20049;-75
2022/11/04 07:41:49;;;;;;;1.38;0.70;;;9.70;99.90;;;;;;5049407;28;20133;-75
2022/11/04 07:44:14;;;;;;;1.90;0.80;;;9.70;99.90;;;;;;5053773;28;20052;-75
2022/11/04 07:46:40;;;;;;;4.22;1.00;;;9.80;99.90;;;;;;5043395;28;20052;-76
2022/11/04 07:49:07;;;;;;;1.80;1.20;;;9.80;99.90;;;;;;5052630;28;20049;-76
2022/11/04 07:51:33;;;;;;;1.67;0.75;;;9.80;99.90;;;;;;5053939;28;20583;-75
2022/11/04 07:53:59;;;;;;;1.77;1.15;;;9.80;99.90;;;;;;5044982;28;20068;-75
2022/11/04 07:56:26;;;;;;;1.75;1.05;;;9.90;99.90;;;;;;5046526;28;20080;-75
2022/11/04 07:58:52;;;;;;;1.90;0.98;;;9.90;99.90;;;;;;5047951;28;20134;-75
2022/11/04 08:01:20;;;;;;;0.98;0.75;;;9.90;99.90;;;;;;5047747;28;20041;-75
2022/11/04 08:03:45;;;;;;;0.98;0.90;;;10.00;99.90;;;;;;5050589;28;20127;-75
2022/11/04 08:06:13;;;;;;;1.25;0.70;;;10.00;99.90;;;;;;5040798;28;20468;-75
2022/11/04 08:08:41;;;;;;;2.88;0.95;;;10.00;99.90;;;;;;5038388;28;20052;-75
2022/11/04 08:11:11;;;;;;;1.65;1.00;;;10.00;99.90;;;;;;5043902;28;20063;-74
2022/11/04 08:13:38;;;;;;;5.03;1.02;;;10.10;99.90;;;;;;5049809;28;20056;-74
2022/11/04 08:16:08;;;;;;;1.95;1.20;;;10.10;99.90;;;;;;5045298;28;20048;-74
2022/11/04 08:18:34;;;;;;;3.13;0.80;;;10.10;99.90;;;;;;5043683;28;20098;-75
2022/11/04 08:21:01;;;;;;;1.75;1.00;;;10.20;99.90;;;;;;5046672;28;20080;-74
2022/11/04 08:23:27;;;;;;;0.60;0.60;;;10.20;99.90;;;;;;5043876;28;20367;-75
2022/11/04 08:25:53;;;;;;;1.92;1.08;;;10.20;99.90;;;;;;5046443;28;20048;-75
2022/11/04 08:28:18;;;;;;;2.80;0.82;;;10.20;99.90;;;;;;5048568;28;20104;-75
2022/11/04 08:30:51;;;;;;;3.13;1.30;;;10.30;99.90;;;;;;5047023;28;20045;-75
2022/11/04 08:33:16;;;;;;;5.50;1.47;;;10.30;99.90;;;;;;5049176;28;20142;-75
2022/11/04 08:35:42;;;;;;;1.30;1.10;;;10.30;99.90;;;;;;5046687;28;20044;-74
2022/11/04 08:38:08;;;;;;;1.33;0.88;;;10.40;99.90;;;;;;5043002;28;20124;-74
2022/11/04 08:40:35;;;;;;;1.23;0.82;;;10.40;99.90;;;;;;5046163;28;20159;-74
2022/11/04 08:43:01;;;;;;;1.55;1.00;;;10.40;99.90;;;;;;5049266;28;20472;-75
2022/11/04 08:45:27;;;;;;;1.40;1.17;;;10.50;99.90;;;;;;5046671;28;20052;-75
2022/11/04 08:47:52;;;;;;;2.90;1.10;;;10.50;99.90;;;;;;5050502;28;20044;-75
2022/11/04 08:50:18;;;;;;;2.33;1.45;;;10.60;99.90;;;;;;5045976;28;20661;-75
2022/11/04 08:52:44;;;;;;;1.00;1.00;;;10.50;99.90;;;;;;5045094;28;20152;-75
2022/11/04 08:55:10;;;;;;;1.85;1.27;;;10.40;99.90;;;;;;5049898;28;20045;-75
2022/11/04 08:57:35;;;;;;;1.02;0.93;;;10.60;99.90;;;;;;5045829;28;20556;-75
2022/11/04 09:00:03;;;;;;;1.40;1.30;;;10.60;99.90;;;;;;5046797;28;20228;-74
2022/11/04 09:02:28;;;;;;;3.00;1.15;;;10.70;99.90;;;;;;5045135;28;20113;-74
2022/11/04 09:04:54;;;;;;;3.47;1.40;;;10.70;99.90;;;;;;5042100;28;20052;-74
2022/11/04 09:07:20;;;;;;;1.83;1.10;;;10.80;99.90;;;;;;5048176;28;20053;-75
2022/11/04 09:09:45;;;;;;;1.52;0.82;;;10.80;99.90;;;;;;5046193;28;20083;-74
2022/11/04 09:12:12;;;;;;;1.08;1.00;;;10.80;99.90;;;;;;5053589;28;20049;-74
2022/11/04 09:14:37;;;;;;;0.70;0.60;;;10.80;99.90;;;;;;5048695;28;20054;-74
2022/11/04 09:17:03;;;;;;;3.20;1.45;;;10.90;99.90;;;;;;5047480;28;20809;-74
2022/11/04 09:19:29;;;;;;;1.27;0.93;;;11.00;99.90;;;;;;5051183;28;20044;-78
2022/11/04 09:21:54;;;;;;;1.17;0.70;;;11.00;99.90;;;;;;5052541;28;20083;-74
2022/11/04 09:24:20;;;;;;;3.55;1.10;;;11.00;99.90;;;;;;5044449;28;20045;-73
2022/11/04 09:26:46;;;;;;;1.95;0.90;;;11.10;99.90;;;;;;5047369;28;20659;-74
2022/11/04 09:29:11;;;;;;;2.90;1.17;;;11.20;99.90;;;;;;5053804;28;20063;-73
2022/11/04 09:31:37;;;;;;;2.20;0.85;;;11.20;99.90;;;;;;5046908;28;20037;-73
2022/11/04 09:34:03;;;;;;;4.07;1.10;;;11.30;99.90;;;;;;5051053;28;20055;-74
2022/11/04 09:36:29;;;;;;;1.20;0.90;;;11.40;99.90;;;;;;5048033;28;20056;-73
2022/11/04 09:38:54;;;;;;;1.90;1.10;;;11.40;99.90;;;;;;5045502;28;20047;-73
2022/11/04 09:41:50;;;;;;;1.90;0.68;;;11.50;99.90;;;;;;5044373;28;20064;-73
2022/11/04 09:44:37;;;;;;;2.25;0.90;;;11.50;99.90;;;;;;5046848;28;20813;-73
2022/11/04 09:47:03;;;;;;;0.98;0.55;;;11.60;99.90;;;;;;5042014;28;20661;-73
2022/11/04 09:49:34;;;;;;;1.65;0.80;;;11.60;99.90;;;;;;5044797;28;20056;-73
2022/11/04 09:52:05;;;;;;;1.58;1.02;;;11.70;99.90;;;;;;5054963;28;20048;-74
2022/11/04 09:54:57;;;;;;;2.33;1.15;;;11.70;99.90;;;;;;5048525;28;20037;-74
2022/11/04 09:57:23;;;;;;;1.55;1.30;;;11.80;99.90;;;;;;5043397;28;20516;-74
2022/11/04 09:59:49;;;;;;;0.80;0.80;;;11.90;99.90;;;;;;5058076;28;20080;-73
2022/11/04 10:02:52;;;;;;;2.53;0.82;;;12.00;99.90;;;;;;5044478;28;20162;-74
2022/11/04 10:05:36;;;;;;;4.63;2.10;;;12.00;99.90;;;;;;5051225;28;20060;-73
2022/11/04 10:08:19;;;;;;;;;;;12.10;99.90;;;;;;5047435;28;20093;-73
2022/11/04 10:10:50;;;;;;;3.55;1.05;;;12.00;99.90;;;;;;5051633;28;20426;-73
2022/11/04 10:13:33;;;;;;;1.77;0.93;;;12.20;99.90;;;;;;5041954;28;20681;-73
2022/11/04 10:16:14;;;;;;;2.15;1.02;;;12.30;99.90;;;;;;5044257;28;20150;-73
2022/11/04 10:19:14;;;;;;;1.67;0.70;;;12.40;99.90;;;;;;5049284;28;20048;-73
2022/11/04 10:22:04;;;;;;;7.00;1.70;;;12.40;99.90;;;;;;5039077;28;20147;-74
2022/11/04 10:24:46;;;;;;;1.33;0.95;;;12.50;99.90;;;;;;5046485;28;20040;-74
2022/11/04 10:27:17;;;;;;;2.05;1.23;;;12.50;99.90;;;;;;5050478;28;20091;-73
2022/11/04 10:29:57;;;;;;;2.50;0.75;;;12.40;99.90;;;;;;5046516;28;20057;-73
2022/11/04 10:32:52;;;;;;;1.00;0.63;;;12.40;99.90;;;;;;5042422;28;20044;-74
2022/11/04 10:35:28;;;;;;;1.25;0.73;;;12.40;99.90;;;;;;5044528;28;20496;-74
2022/11/04 10:37:55;;;;;;;1.08;0.90;;;12.40;99.90;;;;;;5052660;28;20128;-73
2022/11/04 10:40:31;;;;;;;1.42;0.82;;;12.40;99.90;;;;;;5052173;28;20144;-74
2022/11/04 10:42:58;;;;;;;0.70;0.70;;;12.50;99.90;;;;;;5049141;28;20090;-73
2022/11/04 10:45:33;;;;;;;6.40;1.02;;;12.60;99.90;;;;;;5041565;28;20045;-74
2022/11/04 10:48:11;;;;;;;2.55;0.88;;;12.70;99.90;;;;;;5043650;28;20195;-74
2022/11/04 10:50:52;;;;;;;1.50;0.90;;;12.80;99.90;;;;;;5044745;28;20049;-74
2022/11/04 10:53:22;;;;;;;1.40;0.85;;;12.90;99.90;;;;;;5043269;28;20049;-74
2022/11/04 10:56:03;;;;;;;1.85;1.10;;;13.00;99.90;;;;;;5031727;28;20060;-74
2022/11/04 10:58:34;;;;;;;3.50;0.98;;;13.20;99.90;;;;;;5050767;28;20369;-74
2022/11/04 11:01:25;;;;;;;0.95;0.82;;;13.40;99.90;;;;;;5040902;28;20657;-74
2022/11/04 11:03:52;;;;;;;1.65;1.10;;;13.40;99.90;;;;;;5049665;28;21153;-74
2022/11/04 11:06:28;;;;;;;3.65;1.10;;;13.40;99.90;;;;;;5045034;28;20048;-74
2022/11/04 11:08:58;;;;;;;1.65;1.05;;;13.30;99.90;;;;;;5045995;28;20049;-74
2022/11/04 11:11:46;;;;;;;3.22;1.30;;;13.20;99.90;;;;;;5043955;28;20053;-74
2022/11/04 11:14:30;;;;;;;1.95;1.10;;;13.10;99.90;;;;;;5046971;28;20053;-74
2022/11/04 11:17:17;;;;;;;2.33;1.10;;;13.10;99.90;;;;;;5048412;28;20048;-74
2022/11/04 11:20:17;;;;;;;3.72;2.47;;;13.20;99.90;;;;;;5049483;28;20106;-74
2022/11/04 11:22:44;;;;;;;0.73;0.73;;;13.30;99.90;;;;;;5036377;28;20080;-74
2022/11/04 11:25:33;;;;;;;2.05;0.90;;;13.30;99.90;;;;;;5045732;28;20104;-75
2022/11/04 11:28:01;;;;;;;2.08;1.13;;;13.40;99.90;;;;;;5051396;28;20041;-75
2022/11/04 11:30:32;;;;;;;3.53;1.15;;;13.50;99.90;;;;;;5043407;28;20076;-74
2022/11/04 11:33:05;;;;;;;3.90;1.25;;;13.60;99.90;;;;;;5045994;28;20044;-74
2022/11/04 11:35:41;;;;;;;2.88;1.70;;;13.70;99.90;;;;;;5052521;28;20048;-75
2022/11/04 11:38:18;;;;;;;2.35;1.00;;;13.80;99.90;;;;;;5052193;28;20063;-74
2022/11/04 11:40:45;;;;;;;1.77;0.88;;;13.90;99.90;;;;;;5049453;28;20056;-75
2022/11/04 11:43:27;;;;;;;3.10;1.15;;;14.00;99.90;;;;;;5050544;28;20045;-75
2022/11/04 11:45:56;;;;;;;4.05;1.23;;;14.00;99.90;;;;;;5050773;28;20091;-75
2022/11/04 11:48:29;;;;;;;2.80;1.15;;;13.90;99.90;;;;;;5044628;28;20056;-75
2022/11/04 11:50:59;;;;;;;1.90;0.93;;;13.90;99.90;;;;;;5046316;28;20052;-75
2022/11/04 11:53:29;;;;;;;4.55;1.67;;;13.80;99.90;;;;;;5050567;28;20048;-75
2022/11/04 11:56:26;;;;;;;3.92;1.90;;;13.80;99.90;;;;;;5045907;28;20051;-75
2022/11/04 11:59:06;;;;;;;1.65;0.98;;;13.80;99.90;;;;;;5055131;28;20044;-75
2022/11/04 12:02:00;;;;;;;1.50;0.82;;;13.90;99.90;;;;;;5054064;28;20151;-75
2022/11/04 12:04:26;;;;;;;2.70;1.10;;;14.00;99.90;;;;;;5057072;28;20057;-75
2022/11/04 12:06:55;;;;;;;3.58;1.38;;;14.10;99.90;;;;;;5049364;28;20055;-75
2022/11/04 12:09:35;;;;;;;3.97;1.30;;;14.00;99.90;;;;;;5047785;28;20057;-75
2022/11/04 12:12:11;;;;;;;3.03;1.08;;;14.00;99.90;;;;;;5051348;28;20052;-75
2022/11/04 12:14:59;;;;;;;2.60;0.82;;;13.80;99.90;;;;;;5037721;28;20400;-77
2022/11/04 12:17:36;;;;;;;2.10;0.95;;;13.60;99.90;;;;;;5041186;28;20052;-75
2022/11/04 12:20:04;;;;;;;1.55;0.90;;;13.50;99.90;;;;;;5049779;28;20044;-74
2022/11/04 12:22:53;;;;;;;2.05;1.08;;;13.40;99.90;;;;;;5047512;28;20860;-74
2022/11/04 12:25:37;;;;;;;5.30;2.13;;;13.40;99.90;;;;;;5044196;28;20045;-75
2022/11/04 12:28:08;;;;;;;1.25;0.70;;;13.30;99.90;;;;;;5048551;28;20052;-75
2022/11/04 12:30:51;;;;;;;2.90;1.67;;;13.40;99.90;;;;;;5044026;28;20056;-75
2022/11/04 12:33:34;;;;;;;4.95;1.05;;;13.30;99.90;;;;;;5049778;28;20044;-76
2022/11/04 12:36:14;;;;;;;1.75;1.63;;;13.20;99.90;;;;;;5040866;28;20052;-76
2022/11/04 12:39:19;;;;;;;0.95;0.75;;;13.10;99.90;;;;;;5040669;28;20049;-76
2022/11/04 12:42:30;;;;;;;2.03;0.95;;;13.10;99.90;;;;;;5046876;28;20078;-75
2022/11/04 12:45:24;;;;;;;3.30;1.92;;;13.00;99.90;;;;;;5051926;28;20117;-76
2022/11/04 12:47:54;;;;;;;3.90;0.82;;;13.10;99.90;;;;;;5053254;28;20045;-75
2022/11/04 12:50:41;;;;;;;1.35;1.05;;;13.10;99.90;;;;;;5043500;28;20056;-75
2022/11/04 12:53:16;;;;;;;1.45;0.85;;;13.20;99.90;;;;;;5051958;28;20653;-75
2022/11/04 12:55:48;;;;;;;1.88;0.80;;;13.20;99.90;;;;;;5056539;28;20079;-75
2022/11/04 12:58:28;;;;;;;1.60;0.90;;;13.30;99.90;;;;;;5051210;28;20071;-76
2022/11/04 13:01:03;;;;;;;3.28;1.42;;;13.40;99.90;;;;;;5047666;28;20051;-75
2022/11/04 13:03:45;;;;;;;0.55;0.55;;;13.50;99.90;;;;;;5052430;28;20066;-75
2022/11/04 13:06:20;;;;;;;1.17;0.80;;;13.50;99.90;;;;;;5045504;28;20049;-76
2022/11/04 13:08:51;;;;;;;2.25;1.08;;;13.40;99.90;;;;;;5044485;28;20041;-75
2022/11/04 13:11:23;;;;;;;1.15;0.88;;;13.30;99.90;;;;;;5047553;28;20118;-76
2022/11/04 13:14:17;;;;;;;2.72;0.70;;;13.20;99.90;;;;;;5047123;28;20048;-76
2022/11/04 13:16:47;;;;;;;3.03;1.00;;;13.00;99.90;;;;;;5041322;28;20059;-75
2022/11/04 13:19:38;;;;;;;2.28;0.88;;;13.00;99.90;;;;;;5042412;28;20828;-76
2022/11/04 13:22:10;;;;;;;0.55;0.38;;;12.80;99.90;;;;;;5042977;28;20853;-76
2022/11/04 13:24:47;;;;;;;2.47;0.90;;;12.80;99.90;;;;;;5044127;28;20048;-76
2022/11/04 13:27:26;;;;;;;0.60;0.57;;;12.70;99.90;;;;;;5046600;28;20126;-76
2022/11/04 13:30:05;;;;;;;0.60;0.60;;;12.70;99.90;;;;;;5048814;28;20049;-76
2022/11/04 13:32:47;;;;;;;4.47;1.10;;;12.60;99.90;;;;;;5046122;28;20051;-75
2022/11/04 13:35:25;;;;;;;1.60;0.82;;;12.60;99.90;;;;;;5047428;28;20071;-76
2022/11/04 13:38:27;;;;;;;3.30;1.20;;;12.60;99.90;;;;;;5042757;28;20838;-75
2022/11/04 13:41:30;;;;;;;1.10;0.80;;;12.50;99.90;;;;;;5050497;28;20040;-76